Time;durP1;ratioP1;P1;durP2;ratioP2;P2;SDS_P1;SDS_P2;PMS_P1;PMS_P2;Temp;Humidity;BMP_temperature;BMP_pressure;BME280_temperature;BME280_humidity;BME280_pressure;Samples;Min_cycle;Max_cycle;Signal;HPM_P1;HPM_P2
2022/01/06 00:00:36;;;;;;;7.10;6.45;;;;;;;-0.52;96.71;97882.38;6240124;22;20102;-83
2022/01/06 00:03:03;;;;;;;7.30;5.57;;;;;;;-0.40;96.30;97895.50;6214141;22;20024;-82
2022/01/06 00:05:29;;;;;;;16.08;9.68;;;;;;;-0.33;96.51;97907.16;6189720;22;20091;-82
2022/01/06 00:07:55;;;;;;;15.05;10.00;;;;;;;-0.40;96.67;97886.97;6264840;22;20015;-82
2022/01/06 00:10:24;;;;;;;10.32;7.40;;;;;;;-0.32;96.81;97900.28;6190775;22;20518;-82
2022/01/06 00:13:14;;;;;;;11.52;7.25;;;;;;;-0.46;96.60;97867.59;6240332;22;20047;-81
2022/01/06 00:23:06;;;;;;;9.05;7.65;;;;;;;-0.18;96.50;97900.53;6192452;22;20020;-82
2022/01/06 00:24:15;;;;;;;11.90;8.77;;;;;;;-0.15;96.35;97892.72;6264083;22;20463;-81
2022/01/06 00:26:42;;;;;;;9.68;7.85;;;;;;;0.02;96.80;97895.38;6187429;22;20032;-81
2022/01/06 00:29:11;;;;;;;18.95;9.73;;;;;;;-0.04;96.79;97901.63;6212690;22;20028;-81
2022/01/06 00:31:39;;;;;;;17.73;8.00;;;;;;;-0.06;96.82;97898.25;6188836;22;20015;-80
2022/01/06 00:34:10;;;;;;;25.00;11.70;;;;;;;-0.03;96.84;97892.16;6236980;22;20019;-80
2022/01/06 00:36:40;;;;;;;13.60;9.13;;;;;;;-0.04;96.98;97905.91;6214445;22;20024;-81
2022/01/06 00:39:18;;;;;;;12.40;8.27;;;;;;;-0.04;97.66;97898.22;6213749;22;20011;-81
2022/01/06 00:41:56;;;;;;;13.07;9.00;;;;;;;0.06;97.36;97916.59;6233761;22;20059;-81
2022/01/06 00:44:33;;;;;;;6.43;5.97;;;;;;;-0.08;97.24;97888.97;6235552;22;20355;-80
2022/01/06 00:47:12;;;;;;;7.75;6.97;;;;;;;0.11;97.42;97900.09;6187108;22;20026;-80
2022/01/06 00:49:54;;;;;;;10.65;7.50;;;;;;;0.22;97.15;97907.31;6243896;22;20597;-80
2022/01/06 00:52:21;;;;;;;5.70;5.20;;;;;;;0.12;97.32;97895.78;6231802;22;20035;-79
2022/01/06 00:55:12;;;;;;;7.72;6.95;;;;;;;0.19;97.06;97907.44;6201782;22;20015;-78
2022/01/06 00:57:42;;;;;;;8.45;7.65;;;;;;;0.09;97.11;97885.69;6246136;22;20165;-79
2022/01/06 01:00:09;;;;;;;5.63;5.15;;;;;;;0.15;97.21;97900.78;6173323;22;20118;-79
2022/01/06 01:02:36;;;;;;;6.97;6.28;;;;;;;0.22;97.19;97910.72;6175629;22;20019;-80
2022/01/06 01:05:02;;;;;;;8.32;7.53;;;;;;;0.30;97.18;97911.19;6248996;22;20020;-79
2022/01/06 01:07:45;;;;;;;9.10;8.05;;;;;;;0.26;96.82;97890.88;6175865;22;20039;-78
2022/01/06 01:10:25;;;;;;;6.72;5.60;;;;;;;0.39;96.92;97918.47;6237641;22;20032;-78
2022/01/06 01:12:51;;;;;;;7.43;6.22;;;;;;;0.42;96.55;97915.78;6172517;22;20034;-78
2022/01/06 01:15:20;;;;;;;8.85;6.28;;;;;;;0.35;96.97;97909.25;6172131;22;20069;-78
2022/01/06 01:17:50;;;;;;;6.07;5.57;;;;;;;0.34;96.92;97914.44;6199131;22;20062;-80
2022/01/06 01:20:25;;;;;;;5.43;5.03;;;;;;;0.33;97.13;97899.94;6201163;22;20020;-77
2022/01/06 01:22:51;;;;;;;5.95;5.43;;;;;;;0.46;97.15;97921.59;6173329;22;20046;-79
2022/01/06 01:25:17;;;;;;;4.95;4.45;;;;;;;0.31;97.06;97896.63;6251505;22;20026;-78
2022/01/06 01:27:45;;;;;;;7.78;7.00;;;;;;;0.26;96.67;97893.44;6180430;22;20016;-79
2022/01/06 01:30:14;;;;;;;7.03;6.32;;;;;;;0.42;96.57;97905.53;6181680;22;20020;-79
2022/01/06 01:32:46;;;;;;;5.05;4.70;;;;;;;0.49;96.46;97912.00;6158577;22;20054;-79
2022/01/06 01:35:12;;;;;;;5.78;5.28;;;;;;;0.59;96.03;97922.69;6264149;22;20019;-78
2022/01/06 01:37:40;;;;;;;4.93;4.53;;;;;;;0.50;96.02;97912.84;6189311;22;20019;-80
2022/01/06 01:40:08;;;;;;;7.50;6.80;;;;;;;0.34;96.19;97883.66;6212784;22;20141;-80
2022/01/06 01:42:38;;;;;;;3.63;3.33;;;;;;;0.49;95.90;97913.78;6211183;22;20023;-80
2022/01/06 01:45:10;;;;;;;6.07;4.45;;;;;;;0.46;96.11;97901.06;6212003;22;20019;-80
2022/01/06 01:47:41;;;;;;;3.20;3.00;;;;;;;0.59;95.74;97917.56;6205982;22;20019;-79
2022/01/06 01:50:20;;;;;;;2.60;2.42;;;;;;;0.46;95.50;97903.63;6179637;22;20027;-80
2022/01/06 01:52:53;;;;;;;5.55;5.05;;;;;;;0.46;95.57;97901.06;6182194;22;20015;-81
2022/01/06 01:55:21;;;;;;;7.00;6.40;;;;;;;0.56;94.94;97910.00;6256967;22;20035;-80
2022/01/06 01:57:48;;;;;;;6.38;5.10;;;;;;;0.58;95.21;97918.47;6205378;22;20082;-81
2022/01/06 02:00:15;;;;;;;6.93;6.32;;;;;;;0.62;95.17;97925.13;6233413;22;20069;-81
2022/01/06 02:02:42;;;;;;;6.88;5.95;;;;;;;0.64;94.91;97918.19;6210565;22;20031;-81
2022/01/06 02:05:11;;;;;;;5.32;4.88;;;;;;;0.56;94.88;97902.28;6240434;22;20020;-80
2022/01/06 02:07:51;;;;;;;6.07;5.57;;;;;;;0.48;94.68;97887.28;6242213;22;20029;-81
2022/01/06 02:10:19;;;;;;;6.45;5.85;;;;;;;0.59;94.79;97904.72;6203714;22;20019;-80
2022/01/06 02:12:49;;;;;;;7.10;6.40;;;;;;;0.56;94.77;97906.63;6206512;22;20019;-80
2022/01/06 02:15:16;;;;;;;6.28;5.65;;;;;;;0.65;94.59;97922.44;6203940;22;20020;-80
2022/01/06 02:17:44;;;;;;;5.90;5.45;;;;;;;0.55;94.58;97905.78;6226102;22;20116;-80
2022/01/06 02:20:11;;;;;;;5.30;4.85;;;;;;;0.61;94.67;97915.78;6203610;22;20039;-81
2022/01/06 02:22:38;;;;;;;6.97;4.55;;;;;;;0.57;94.44;97903.97;6230527;22;20027;-80
2022/01/06 02:25:19;;;;;;;5.40;4.90;;;;;;;0.73;94.27;97934.88;6156364;22;20027;-80
2022/01/06 02:27:51;;;;;;;5.88;5.38;;;;;;;0.67;94.31;97920.63;6204479;22;20428;-81
2022/01/06 02:30:17;;;;;;;6.20;5.63;;;;;;;0.58;94.52;97900.50;6155985;22;20452;-81
2022/01/06 02:32:43;;;;;;;7.53;6.05;;;;;;;0.72;94.76;97913.50;6283335;22;20086;-80
2022/01/06 02:35:11;;;;;;;5.45;4.95;;;;;;;0.57;94.22;97885.16;6176353;22;20074;-79
2022/01/06 02:37:42;;;;;;;4.45;4.05;;;;;;;0.79;94.60;97935.44;6226383;22;20027;-80
2022/01/06 02:40:10;;;;;;;10.95;7.00;;;;;;;0.75;94.40;97931.38;6176900;22;20035;-80
2022/01/06 02:43:03;;;;;;;7.13;4.35;;;;;;;0.62;95.01;97917.44;6177162;22;20077;-79
2022/01/06 02:45:40;;;;;;;14.02;6.25;;;;;;;0.77;95.01;97937.25;6224051;22;20023;-80
2022/01/06 02:48:09;;;;;;;6.35;5.68;;;;;;;0.54;95.61;97909.25;6251283;22;20027;-79
2022/01/06 02:50:40;;;;;;;13.50;8.18;;;;;;;0.52;95.09;97916.19;6227700;22;20345;-79
2022/01/06 02:53:06;;;;;;;15.60;10.20;;;;;;;0.69;95.94;97949.59;6152097;22;20023;-79
2022/01/06 02:55:33;;;;;;;21.90;11.55;;;;;;;0.53;96.04;97922.97;6226360;22;20046;-80
2022/01/06 02:58:02;;;;;;;12.82;8.20;;;;;;;0.40;95.70;97909.88;6175657;22;20023;-80
2022/01/06 03:00:35;;;;;;;19.63;9.70;;;;;;;0.44;96.10;97908.84;6175819;22;20486;-80
2022/01/06 03:03:02;;;;;;;15.50;7.93;;;;;;;0.46;95.70;97913.88;6154541;22;20026;-80
2022/01/06 03:05:28;;;;;;;10.55;7.13;;;;;;;0.51;96.27;97930.75;6225601;22;20030;-81
2022/01/06 03:07:54;;;;;;;13.98;7.97;;;;;;;0.56;95.70;97930.53;6228281;22;20055;-81
2022/01/06 03:10:22;;;;;;;12.02;6.97;;;;;;;0.41;95.51;97910.72;6202359;22;20050;-80
2022/01/06 03:12:49;;;;;;;10.23;8.27;;;;;;;0.65;95.64;97945.53;6202104;22;20509;-80
2022/01/06 03:15:26;;;;;;;18.00;9.20;;;;;;;0.51;95.35;97922.22;6253905;22;20020;-80
2022/01/06 03:18:07;;;;;;;10.38;5.95;;;;;;;0.57;95.39;97939.06;6215714;22;20015;-81
2022/01/06 03:20:34;;;;;;;10.18;5.50;;;;;;;0.45;95.10;97925.06;6208173;22;20081;-81
2022/01/06 03:23:05;;;;;;;11.20;6.55;;;;;;;0.62;95.02;97953.38;6181914;22;20054;-80
2022/01/06 03:25:37;;;;;;;6.97;5.70;;;;;;;0.62;94.89;97953.38;6184597;22;20075;-81
2022/01/06 03:28:04;;;;;;;20.20;10.18;;;;;;;0.63;94.83;97955.03;6210589;22;20024;-80
2022/01/06 03:30:30;;;;;;;9.93;8.20;;;;;;;0.69;94.88;97959.88;6211016;22;20024;-81
2022/01/06 03:32:59;;;;;;;13.45;8.38;;;;;;;0.63;94.67;97949.88;6235265;22;20015;-80
2022/01/06 03:35:26;;;;;;;11.98;7.65;;;;;;;0.52;94.83;97926.47;6162912;22;20020;-81
2022/01/06 03:37:56;;;;;;;13.30;7.53;;;;;;;0.72;94.63;97962.28;6240584;22;20435;-81
2022/01/06 03:40:26;;;;;;;10.00;6.72;;;;;;;0.45;95.16;97904.53;6195299;22;20031;-80
2022/01/06 03:42:53;;;;;;;11.77;8.02;;;;;;;0.65;94.72;97937.84;6234248;22;20472;-81
2022/01/06 03:45:22;;;;;;;10.73;7.45;;;;;;;0.56;94.79;97920.25;6188120;22;20027;-80
2022/01/06 03:47:53;;;;;;;6.55;5.85;;;;;;;0.58;95.28;97936.44;6212280;22;20356;-83
2022/01/06 03:50:19;;;;;;;6.25;5.70;;;;;;;0.64;95.99;97949.00;6189006;22;20091;-81
2022/01/06 03:52:45;;;;;;;4.47;4.18;;;;;;;0.42;96.69;97936.31;6239836;22;20015;-81
2022/01/06 03:55:18;;;;;;;5.88;5.35;;;;;;;0.47;97.24;97943.78;6188729;22;20077;-81
2022/01/06 03:57:45;;;;;;;6.05;5.55;;;;;;;0.51;98.24;97955.59;6189423;22;20019;-81
2022/01/06 04:00:13;;;;;;;5.43;5.00;;;;;;;0.28;98.09;97923.25;6292518;22;20016;-81
2022/01/06 04:02:42;;;;;;;7.50;5.18;;;;;;;0.25;98.81;97917.44;6168500;22;20046;-80
2022/01/06 04:05:11;;;;;;;5.55;5.05;;;;;;;0.21;98.91;97915.91;6193818;22;20143;-82
2022/01/06 04:07:40;;;;;;;7.35;6.70;;;;;;;0.31;99.28;97932.53;6220772;22;20030;-81
2022/01/06 04:10:07;;;;;;;7.80;7.03;;;;;;;0.38;99.55;97944.22;6192960;22;20020;-79
2022/01/06 04:12:36;;;;;;;7.53;6.82;;;;;;;0.35;100.00;97944.34;6217780;22;20016;-81
2022/01/06 04:15:09;;;;;;;9.50;7.15;;;;;;;0.11;99.97;97915.47;6220014;22;20010;-82
2022/01/06 04:17:38;;;;;;;8.77;6.40;;;;;;;0.22;100.00;97938.09;6221346;22;20020;-81
2022/01/06 04:20:07;;;;;;;6.88;6.28;;;;;;;0.31;100.00;97948.78;6171846;22;20305;-81
2022/01/06 04:22:34;;;;;;;9.65;7.32;;;;;;;0.19;100.00;97935.66;6296673;22;20023;-81
2022/01/06 04:25:05;;;;;;;10.93;7.60;;;;;;;0.26;100.00;97950.69;6171537;22;20015;-82
2022/01/06 04:28:01;;;;;;;6.63;6.10;;;;;;;0.26;100.00;97960.97;6210436;22;20040;-83
2022/01/06 04:30:40;;;;;;;7.07;6.38;;;;;;;0.21;100.00;97959.50;6261203;22;20030;-83
2022/01/06 04:33:06;;;;;;;8.57;7.20;;;;;;;0.15;100.00;97941.81;6184502;22;20028;-81
2022/01/06 04:35:36;;;;;;;8.65;7.50;;;;;;;0.13;100.00;97943.63;6161951;22;20054;-82
2022/01/06 04:38:04;;;;;;;10.23;7.30;;;;;;;0.20;100.00;97960.41;6208586;22;20023;-82
2022/01/06 04:40:32;;;;;;;11.25;10.25;;;;;;;0.02;100.00;97936.41;6209096;22;20108;-81
2022/01/06 04:42:58;;;;;;;4.97;4.57;;;;;;;-0.14;100.00;97943.09;6159737;22;20027;-80
2022/01/06 04:45:24;;;;;;;2.72;2.53;;;;;;;-0.37;100.00;97944.06;6185524;22;20078;-83
2022/01/06 04:47:50;;;;;;;3.58;1.85;;;;;;;-0.41;100.00;97963.03;6186981;22;20026;-81
2022/01/06 04:50:21;;;;;;;3.83;2.90;;;;;;;-0.58;100.00;97950.91;6208732;22;20015;-81
2022/01/06 04:52:57;;;;;;;;;;;;;;;-0.46;100.00;97984.63;6182634;22;20041;-80
2022/01/06 04:55:23;;;;;;;5.35;2.45;;;;;;;-0.48;100.00;97987.22;6214440;22;19915;-81
2022/01/06 04:57:49;;;;;;;3.47;3.05;;;;;;;-0.57;100.00;97967.94;6190128;22;20082;-81
2022/01/06 05:00:15;;;;;;;2.55;2.35;;;;;;;-0.69;100.00;97947.94;6261299;22;20101;-80
2022/01/06 05:02:45;;;;;;;4.70;2.80;;;;;;;-0.53;100.00;97984.03;6209885;22;20215;-81
2022/01/06 05:05:13;;;;;;;3.22;2.92;;;;;;;-0.54;100.00;97982.34;6182869;22;20019;-81
2022/01/06 05:07:42;;;;;;;5.93;3.38;;;;;;;-0.51;100.00;97997.59;6159153;22;20028;-81
2022/01/06 05:10:09;;;;;;;3.65;3.25;;;;;;;-0.51;100.00;97992.47;6229925;22;20020;-82
2022/01/06 05:12:41;;;;;;;4.28;3.67;;;;;;;-0.69;100.00;97967.63;6161126;22;20024;-81
2022/01/06 05:15:08;;;;;;;5.35;2.95;;;;;;;-0.66;100.00;97985.44;6285501;22;20020;-80
2022/01/06 05:17:34;;;;;;;6.72;3.70;;;;;;;-0.59;100.00;97979.16;6199142;22;20046;-80
2022/01/06 05:20:01;;;;;;;5.80;3.35;;;;;;;-0.50;100.00;98001.84;6249229;22;20475;-78
2022/01/06 05:22:29;;;;;;;6.63;3.30;;;;;;;-0.55;100.00;97993.50;6276026;22;20065;-80
2022/01/06 05:24:56;;;;;;;4.35;3.85;;;;;;;-0.46;100.00;98000.00;6198644;22;20024;-79
2022/01/06 05:27:22;;;;;;;5.82;4.28;;;;;;;-0.49;100.00;97983.00;6248500;22;20019;-79
2022/01/06 05:29:48;;;;;;;6.80;4.53;;;;;;;-0.51;100.00;97982.22;6197535;22;20111;-79
2022/01/06 05:32:14;;;;;;;4.03;3.50;;;;;;;-0.39;100.00;98001.41;6222491;22;20027;-79
2022/01/06 05:34:43;;;;;;;4.05;3.75;;;;;;;-0.34;99.32;98004.59;6223608;22;20098;-79
2022/01/06 05:37:09;;;;;;;6.35;4.18;;;;;;;-0.34;98.59;98005.44;6248284;22;20027;-80
2022/01/06 05:39:38;;;;;;;7.15;4.20;;;;;;;-0.32;98.50;98005.38;6223427;22;20026;-78
2022/01/06 05:42:04;;;;;;;5.65;4.38;;;;;;;-0.28;98.08;98012.88;6226576;22;20079;-79
2022/01/06 05:44:33;;;;;;;5.90;4.10;;;;;;;-0.26;97.36;98012.84;6250711;22;20069;-79
2022/01/06 05:47:02;;;;;;;5.00;4.18;;;;;;;-0.41;96.96;97977.56;6273293;22;20020;-80
2022/01/06 05:49:40;;;;;;;;;;;;;;;;;;;;;
2022/01/06 05:52:07;;;;;;;4.22;3.83;;;;;;;-0.31;95.59;97997.63;6175335;22;20016;-77
2022/01/06 05:54:34;;;;;;;5.10;3.80;;;;;;;-0.39;95.37;97986.84;6171863;22;20051;-78
2022/01/06 05:57:00;;;;;;;4.10;3.78;;;;;;;-0.30;95.14;98001.03;6220046;22;20367;-77
2022/01/06 05:59:29;;;;;;;4.07;3.78;;;;;;;-0.40;95.52;97986.94;6195220;22;20027;-76
2022/01/06 06:01:55;;;;;;;5.78;4.10;;;;;;;-0.27;95.51;98006.03;6196590;22;20056;-80
2022/01/06 06:04:21;;;;;;;8.38;3.33;;;;;;;-0.22;95.08;98010.06;6220950;22;20043;-79
2022/01/06 06:06:47;;;;;;;3.80;3.50;;;;;;;-0.26;94.66;98000.81;6196225;22;20031;-78
2022/01/06 06:09:13;;;;;;;3.53;3.22;;;;;;;-0.26;95.03;98003.38;6220593;22;20065;-78
2022/01/06 06:11:40;;;;;;;4.43;3.20;;;;;;;-0.22;94.61;98002.38;6196090;22;20074;-78
2022/01/06 06:14:06;;;;;;;3.45;3.20;;;;;;;-0.21;94.61;97996.34;6170759;22;20027;-79
2022/01/06 06:16:32;;;;;;;5.30;3.35;;;;;;;-0.20;94.52;97998.03;6196764;22;20024;-79
2022/01/06 06:18:58;;;;;;;4.90;3.15;;;;;;;-0.23;94.23;97987.88;6198002;22;20019;-80
2022/01/06 06:21:25;;;;;;;4.80;2.90;;;;;;;-0.19;94.13;97994.56;6225473;22;20019;-79
2022/01/06 06:23:51;;;;;;;3.00;2.72;;;;;;;-0.16;93.85;97996.97;6200374;22;20026;-78
2022/01/06 06:26:17;;;;;;;3.10;2.80;;;;;;;-0.11;93.83;97999.38;6225455;22;20019;-78
2022/01/06 06:28:44;;;;;;;5.13;3.05;;;;;;;-0.09;94.02;97995.00;6175644;22;20023;-78
2022/01/06 06:31:10;;;;;;;3.72;2.97;;;;;;;-0.15;93.63;97990.97;6146910;22;20488;-78
2022/01/06 06:33:37;;;;;;;2.83;2.63;;;;;;;-0.24;93.94;97975.97;6197628;22;20444;-78
2022/01/06 06:36:05;;;;;;;5.35;4.25;;;;;;;-0.16;93.87;97970.50;6197700;22;20015;-79
2022/01/06 06:38:32;;;;;;;8.63;4.18;;;;;;;-0.18;93.87;97960.34;6246517;22;20069;-78
2022/01/06 06:41:02;;;;;;;8.73;3.30;;;;;;;-0.03;93.48;97980.19;6246294;22;20030;-79
2022/01/06 06:43:28;;;;;;;5.38;4.20;;;;;;;-0.15;93.85;97955.06;6228319;22;20047;-77
2022/01/06 06:45:58;;;;;;;4.80;4.38;;;;;;;0.03;93.65;97978.28;6186200;22;20016;-78
2022/01/06 06:48:25;;;;;;;7.95;4.95;;;;;;;-0.03;93.70;97969.09;6234841;22;20020;-77
2022/01/06 06:50:53;;;;;;;7.95;5.80;;;;;;;0.04;93.83;97982.47;6205924;22;20059;-80
2022/01/06 06:53:19;;;;;;;9.70;6.65;;;;;;;-0.07;93.55;97959.88;6196747;22;20024;-79
2022/01/06 06:55:49;;;;;;;6.88;6.28;;;;;;;-0.06;93.89;97951.28;6196355;22;20055;-79
2022/01/06 06:58:15;;;;;;;9.80;7.50;;;;;;;-0.10;94.19;97958.25;6173780;22;20016;-79
2022/01/06 07:00:41;;;;;;;10.27;7.32;;;;;;;-0.04;94.90;97978.53;6196829;22;20095;-79
2022/01/06 07:03:08;;;;;;;11.93;7.85;;;;;;;-0.03;94.88;97985.31;6221134;22;20019;-78
2022/01/06 07:05:35;;;;;;;9.10;7.68;;;;;;;-0.03;95.42;97985.31;6195828;22;20020;-79
2022/01/06 07:08:04;;;;;;;16.40;9.90;;;;;;;-0.18;95.56;97959.50;6198412;22;20015;-81
2022/01/06 07:10:34;;;;;;;14.13;10.88;;;;;;;-0.10;96.02;97978.78;6174452;22;20024;-79
2022/01/06 07:13:04;;;;;;;13.05;10.88;;;;;;;0.08;96.14;97984.03;6173359;22;20024;-80
2022/01/06 07:15:41;;;;;;;14.35;9.98;;;;;;;0.11;95.89;97981.31;6202044;22;20026;-79
2022/01/06 07:18:08;;;;;;;15.43;11.05;;;;;;;-0.01;95.59;97952.75;6151133;22;20078;-78
2022/01/06 07:20:34;;;;;;;10.82;9.57;;;;;;;0.15;95.79;97981.13;6198095;22;20460;-78
2022/01/06 07:23:00;;;;;;;11.70;9.48;;;;;;;0.11;96.52;97977.03;6223369;22;20019;-78
2022/01/06 07:25:28;;;;;;;11.20;8.30;;;;;;;0.13;96.77;97985.47;6197337;22;20047;-77
2022/01/06 07:27:54;;;;;;;9.18;6.38;;;;;;;0.08;96.78;97981.47;6248309;22;20482;-79
2022/01/06 07:30:21;;;;;;;10.75;8.57;;;;;;;0.04;97.09;97980.75;6174513;22;20027;-78
2022/01/06 07:32:53;;;;;;;12.80;11.43;;;;;;;-0.06;97.35;97969.22;6249290;22;20101;-79
2022/01/06 07:35:21;;;;;;;12.55;9.20;;;;;;;0.00;97.76;97982.63;6223688;22;20016;-78
2022/01/06 07:37:50;;;;;;;7.18;6.30;;;;;;;0.07;97.50;97990.03;6248595;22;20115;-78
2022/01/06 07:40:20;;;;;;;9.45;8.48;;;;;;;0.07;97.32;97987.47;6248410;22;20011;-80
2022/01/06 07:42:47;;;;;;;6.03;5.25;;;;;;;-0.05;97.41;97971.72;6199047;22;20031;-79
2022/01/06 07:45:15;;;;;;;15.13;10.57;;;;;;;0.04;97.62;97985.88;6198295;22;20090;-79
2022/01/06 07:47:54;;;;;;;10.50;6.82;;;;;;;0.12;97.71;97998.38;6195969;22;20024;-79
2022/01/06 07:50:33;;;;;;;16.00;12.88;;;;;;;0.07;97.76;98000.28;6178123;22;20095;-76
2022/01/06 07:53:12;;;;;;;;;;;;;;;0.08;97.86;97997.69;6247185;22;20027;-75
2022/01/06 07:58:37;;;;;;;14.70;10.52;;;;;;;0.04;98.84;97992.75;6208186;22;20106;-76
2022/01/06 08:01:05;;;;;;;17.38;12.48;;;;;;;-0.02;98.62;97981.03;6173463;22;20011;-76
2022/01/06 08:03:33;;;;;;;17.40;12.93;;;;;;;0.03;98.68;97980.84;6197483;22;20027;-75
2022/01/06 08:06:01;;;;;;;15.57;11.68;;;;;;;0.01;98.65;97991.16;6223075;22;20091;-76
2022/01/06 08:08:29;;;;;;;11.73;9.15;;;;;;;-0.06;98.92;97970.06;6172110;22;20510;-75
2022/01/06 08:10:55;;;;;;;21.88;14.70;;;;;;;-0.05;99.08;97966.59;6195987;22;20020;-74
2022/01/06 08:13:21;;;;;;;16.90;12.35;;;;;;;-0.04;99.21;97965.72;6272680;22;20460;-74
2022/01/06 08:15:47;;;;;;;22.02;11.70;;;;;;;-0.08;99.53;97946.22;6220596;22;20069;-74
2022/01/06 08:18:15;;;;;;;18.17;11.77;;;;;;;-0.10;99.04;97930.06;6246032;22;20026;-72
2022/01/06 08:20:41;;;;;;;16.83;11.88;;;;;;;0.11;98.96;97956.50;6195831;22;20509;-74
2022/01/06 08:23:08;;;;;;;17.50;11.88;;;;;;;0.08;98.66;97943.00;6171547;22;20027;-74
2022/01/06 08:25:35;;;;;;;19.45;11.63;;;;;;;0.06;98.61;97952.50;6245890;22;20016;-74
2022/01/06 08:28:01;;;;;;;21.13;12.40;;;;;;;0.19;98.60;97963.88;6147362;22;20020;-74
2022/01/06 08:30:29;;;;;;;14.85;11.45;;;;;;;0.18;98.75;97946.81;6195854;22;20130;-77
2022/01/06 08:32:57;;;;;;;17.80;12.13;;;;;;;0.08;98.54;97943.00;6171725;22;20019;-75
2022/01/06 08:35:26;;;;;;;17.23;11.82;;;;;;;0.26;98.15;97962.72;6165538;22;20024;-76
2022/01/06 08:37:57;;;;;;;16.85;11.63;;;;;;;0.23;98.41;97950.84;6221711;22;20083;-74
2022/01/06 08:40:26;;;;;;;17.35;12.50;;;;;;;0.38;98.10;97967.31;6195156;22;20070;-74
2022/01/06 08:42:53;;;;;;;19.98;13.45;;;;;;;0.25;97.88;97959.31;6219360;22;20028;-75
2022/01/06 08:45:19;;;;;;;18.58;11.90;;;;;;;0.41;98.18;97969.72;6145597;22;20023;-75
2022/01/06 08:47:47;;;;;;;14.85;9.73;;;;;;;0.39;97.60;97966.41;6169414;22;20479;-74
2022/01/06 08:50:18;;;;;;;16.70;10.38;;;;;;;0.41;97.59;97965.44;6220187;22;20015;-74
2022/01/06 08:52:47;;;;;;;12.05;8.75;;;;;;;0.42;97.22;97953.44;6222766;22;20118;-74
2022/01/06 08:55:13;;;;;;;14.85;11.48;;;;;;;0.44;96.64;97949.06;6271885;22;20015;-74
2022/01/06 08:57:41;;;;;;;24.02;13.52;;;;;;;0.48;96.40;97956.56;6219246;22;20135;-73
2022/01/06 09:00:09;;;;;;;16.48;12.63;;;;;;;0.42;96.82;97951.72;6244779;22;20019;-73
2022/01/06 09:02:38;;;;;;;18.67;14.45;;;;;;;0.51;96.94;97961.56;6192691;22;20070;-74
2022/01/06 09:05:06;;;;;;;17.98;14.00;;;;;;;0.41;96.71;97944.91;6246182;22;20085;-75
2022/01/06 09:07:34;;;;;;;15.48;12.57;;;;;;;0.48;96.43;97960.84;6247037;22;20043;-74
2022/01/06 09:10:02;;;;;;;13.68;11.45;;;;;;;0.45;96.49;97958.44;6194052;22;20024;-73
2022/01/06 09:12:29;;;;;;;19.67;13.35;;;;;;;0.49;96.72;97957.41;6191258;22;20105;-74
2022/01/06 09:14:55;;;;;;;14.90;11.30;;;;;;;0.55;96.21;97954.56;6191429;22;20521;-74
2022/01/06 09:17:21;;;;;;;12.02;10.18;;;;;;;0.67;95.97;97961.69;6169480;22;20356;-73
2022/01/06 09:19:48;;;;;;;11.93;9.75;;;;;;;0.58;95.81;97951.84;6143611;22;20066;-73
2022/01/06 09:22:14;;;;;;;14.35;9.13;;;;;;;0.66;95.63;97960.00;6193003;22;20020;-73
2022/01/06 09:24:40;;;;;;;11.80;10.10;;;;;;;0.65;95.54;97957.53;6220084;22;20118;-72
2022/01/06 09:27:07;;;;;;;12.57;10.30;;;;;;;0.56;95.43;97948.50;6219493;22;20023;-71
2022/01/06 09:29:33;;;;;;;13.50;10.23;;;;;;;0.61;95.72;97956.84;6170067;22;20110;-72
2022/01/06 09:31:59;;;;;;;10.38;9.23;;;;;;;0.56;95.98;97940.00;6218814;22;20019;-73
2022/01/06 09:34:25;;;;;;;15.20;8.48;;;;;;;0.58;95.63;97951.84;6168401;22;20016;-73
2022/01/06 09:36:54;;;;;;;10.27;9.27;;;;;;;0.60;96.00;97951.75;6195178;22;20372;-73
2022/01/06 09:39:22;;;;;;;9.70;8.82;;;;;;;0.52;95.81;97947.00;6195975;22;20028;-73
2022/01/06 09:41:48;;;;;;;11.27;9.18;;;;;;;0.52;95.56;97949.56;6171367;22;20015;-73
2022/01/06 09:44:15;;;;;;;11.85;6.93;;;;;;;0.47;95.55;97936.09;6195479;22;20066;-73
2022/01/06 09:46:42;;;;;;;14.50;9.27;;;;;;;0.54;95.76;97945.19;6220643;22;20407;-73
2022/01/06 09:49:08;;;;;;;12.30;10.05;;;;;;;0.57;96.07;97957.88;6195888;22;20019;-73
2022/01/06 09:51:34;;;;;;;9.98;8.70;;;;;;;0.49;96.08;97947.94;6195503;22;20023;-73
2022/01/06 09:54:01;;;;;;;12.10;10.02;;;;;;;0.55;96.00;97948.59;6246460;22;20094;-73
2022/01/06 09:56:27;;;;;;;21.25;9.65;;;;;;;0.44;96.10;97941.38;6166155;23;20024;-72
2022/01/06 09:58:56;;;;;;;13.25;9.45;;;;;;;0.44;96.59;97946.50;6166986;23;20466;-73
2022/01/06 10:01:23;;;;;;;9.98;8.38;;;;;;;0.47;96.45;97948.91;6166508;23;20371;-72
2022/01/06 10:03:50;;;;;;;10.65;9.55;;;;;;;0.53;96.45;97948.63;6142032;23;20024;-73
2022/01/06 10:06:24;;;;;;;13.18;9.57;;;;;;;0.54;96.34;97950.31;6215472;23;20091;-73
2022/01/06 10:08:54;;;;;;;9.95;8.30;;;;;;;0.52;96.30;97949.56;6190229;23;20472;-73
2022/01/06 10:11:24;;;;;;;9.80;8.88;;;;;;;0.51;96.54;97935.06;6165167;23;20016;-73
2022/01/06 10:14:06;;;;;;;11.98;10.05;;;;;;;0.60;95.70;97941.50;6191169;23;20043;-73
2022/01/06 10:16:33;;;;;;;11.30;8.68;;;;;;;0.53;96.13;97938.38;6192129;23;20302;-73
2022/01/06 10:19:06;;;;;;;15.43;10.50;;;;;;;0.50;96.17;97928.25;6190094;23;20530;-75
2022/01/06 10:21:43;;;;;;;11.07;9.43;;;;;;;0.53;96.07;97928.94;6214750;23;20599;-74
2022/01/06 10:24:10;;;;;;;12.45;9.93;;;;;;;0.49;96.21;97939.44;6193154;23;20028;-73
2022/01/06 10:26:37;;;;;;;11.00;9.35;;;;;;;0.53;96.33;97930.66;6215014;23;20796;-73
2022/01/06 10:29:07;;;;;;;13.30;9.90;;;;;;;0.54;96.50;97929.78;6140999;23;20423;-73
2022/01/06 10:31:33;;;;;;;10.77;9.68;;;;;;;0.61;95.89;97938.03;6190274;23;20024;-73
2022/01/06 10:34:05;;;;;;;10.63;8.45;;;;;;;0.54;96.22;97929.78;6216209;23;20043;-73
2022/01/06 10:36:32;;;;;;;11.05;8.43;;;;;;;0.74;95.81;97941.69;6218891;23;20047;-72
2022/01/06 10:38:59;;;;;;;10.57;7.82;;;;;;;0.62;95.65;97932.84;6193531;23;20016;-73
2022/01/06 10:41:27;;;;;;;12.38;8.70;;;;;;;0.70;96.04;97942.72;6190357;23;20098;-72
2022/01/06 10:43:57;;;;;;;12.90;9.18;;;;;;;0.49;96.60;97931.75;6191381;23;20464;-72
2022/01/06 10:46:33;;;;;;;12.73;10.00;;;;;;;0.48;96.90;97935.19;6168866;23;20016;-72
2022/01/06 10:49:06;;;;;;;10.73;8.35;;;;;;;0.50;97.33;97926.50;6218196;23;20461;-72
2022/01/06 10:51:37;;;;;;;13.75;9.75;;;;;;;0.32;97.16;97900.88;6192549;23;20051;-71
2022/01/06 10:54:07;;;;;;;10.23;8.20;;;;;;;0.46;97.34;97926.72;6195697;23;20069;-71
2022/01/06 10:56:33;;;;;;;14.45;9.85;;;;;;;0.45;97.41;97932.78;6208323;22;20154;-72
2022/01/06 10:58:59;;;;;;;12.35;8.43;;;;;;;0.37;97.81;97916.88;6223344;22;20103;-73
2022/01/06 11:01:26;;;;;;;12.20;10.05;;;;;;;0.44;97.90;97918.25;6198030;22;20042;-72
2022/01/06 11:03:52;;;;;;;15.38;9.55;;;;;;;0.52;98.00;97918.75;6248587;22;20039;-73
2022/01/06 11:06:18;;;;;;;11.68;10.13;;;;;;;0.56;97.94;97922.81;6248659;22;20089;-72
2022/01/06 11:08:44;;;;;;;15.45;9.85;;;;;;;0.59;97.81;97916.75;6247844;22;20039;-72
2022/01/06 11:13:47;;;;;;;16.45;10.55;;;;;;;0.74;97.39;97919.44;6223610;22;20022;-72
2022/01/06 11:16:15;;;;;;;9.77;8.82;;;;;;;0.67;97.29;97915.47;6223707;22;20098;-72
2022/01/06 11:18:50;;;;;;;18.52;11.50;;;;;;;0.60;97.30;97923.53;6246226;22;20023;-72
2022/01/06 11:21:17;;;;;;;11.90;9.63;;;;;;;0.68;97.80;97922.28;6246670;22;20020;-72
2022/01/06 11:23:43;;;;;;;12.38;8.73;;;;;;;0.71;97.38;97922.16;6222544;22;20034;-72
2022/01/06 11:26:31;;;;;;;10.43;9.25;;;;;;;0.78;96.98;97900.41;6247777;22;20026;-72
2022/01/06 11:29:01;;;;;;;15.70;10.05;;;;;;;0.92;96.79;97921.13;6250343;22;20547;-72
2022/01/06 11:31:42;;;;;;;10.85;8.65;;;;;;;0.73;96.92;97930.59;6224831;22;20311;-72
2022/01/06 11:34:11;;;;;;;9.43;7.38;;;;;;;0.65;97.09;97926.72;6199048;22;20027;-71
2022/01/06 11:36:38;;;;;;;9.02;8.13;;;;;;;0.49;97.38;97926.59;6275706;22;20440;-71
2022/01/06 11:39:08;;;;;;;9.70;7.35;;;;;;;0.45;97.91;97925.91;6223924;22;20380;-73
2022/01/06 11:41:36;;;;;;;8.15;7.32;;;;;;;0.48;98.27;97927.50;6199220;22;20024;-73
2022/01/06 11:44:02;;;;;;;9.57;6.93;;;;;;;0.45;98.06;97938.75;6224072;22;20027;-73
2022/01/06 11:46:40;;;;;;;8.32;7.50;;;;;;;0.43;98.38;97932.00;6276004;22;20015;-73
2022/01/06 11:49:07;;;;;;;9.20;7.50;;;;;;;0.41;98.17;97928.66;6249166;22;20065;-73
2022/01/06 11:51:35;;;;;;;8.07;7.28;;;;;;;0.34;98.26;97932.41;6249771;22;20436;-72
2022/01/06 11:54:18;;;;;;;10.05;8.52;;;;;;;0.50;98.82;97941.91;6250545;22;20023;-74